Time;durP1;ratioP1;P1;durP2;ratioP2;P2;SDS_P1;SDS_P2;PMS_P1;PMS_P2;Temp;Humidity;BMP_temperature;BMP_pressure;BME280_temperature;BME280_humidity;BME280_pressure;Samples;Min_cycle;Max_cycle;Signal;HPM_P1;HPM_P2
2022/04/10 00:01:51;;;;;;;;;;;;;;;;;;4407010;32;20026;-80
2022/04/10 00:04:17;;;;;;;6.22;2.30;;;;;;;;;;4390759;32;20015;-79
2022/04/10 00:06:42;;;;;;;;;;;;;;;;;;4405676;32;20133;-79
2022/04/10 00:09:07;;;;;;;15.55;3.37;;;;;;;;;;4404747;32;20311;-79
2022/04/10 00:11:32;;;;;;;10.65;2.40;;;;;;;;;;4404880;32;20185;-77
2022/04/10 00:13:58;;;;;;;;;;;;;;;;;;4408393;32;20053;-80
2022/04/10 00:16:23;;;;;;;8.90;2.70;;;;;;;;;;4408008;32;19934;-79
2022/04/10 00:18:48;;;;;;;;;;;;;;;;;;4394626;32;20527;-79
2022/04/10 00:21:13;;;;;;;18.58;3.45;;;;;;;;;;4394059;32;19937;-80
2022/04/10 00:23:39;;;;;;;;;;;;;;;;;;4408084;32;20122;-80
2022/04/10 00:26:04;;;;;;;15.90;2.97;;;;;;;;;;4393281;32;19979;-76
2022/04/10 00:28:29;;;;;;;;;;;;;;;;;;4404719;32;20125;-76
2022/04/10 00:30:54;;;;;;;16.23;3.55;;;;;;;;;;4422271;32;20019;-81
2022/04/10 00:33:19;;;;;;;;;;;;;;;;;;4423113;32;20507;-78
2022/04/10 00:35:44;;;;;;;10.63;3.05;;;;;;;;;;4422819;32;19941;-81
2022/04/10 00:38:10;;;;;;;;;;;;;;;;;;4435296;26;20391;-75
2022/04/10 00:40:35;;;;;;;14.63;3.65;;;;;;;;;;4383417;32;19957;-74
2022/04/10 00:43:00;;;;;;;;;;;;;;;;;;4393862;32;20026;-74
2022/04/10 00:45:25;;;;;;;10.65;3.00;;;;;;;;;;4379656;32;19949;-74
2022/04/10 00:47:50;;;;;;;;;;;;;;;;;;4378385;32;20127;-75
2022/04/10 00:50:16;;;;;;;14.38;3.15;;;;;;;;;;4392338;32;19942;-74
2022/04/10 00:52:42;;;;;;;;;;;;;;;;;;4392657;32;20050;-74
2022/04/10 00:55:07;;;;;;;13.70;3.10;;;;;;;;;;4390661;32;19979;-74
2022/04/10 00:57:32;;;;;;;;;;;;;;;;;;4392766;32;20030;-73
2022/04/10 00:59:57;;;;;;;9.30;2.60;;;;;;;;;;4392703;32;19937;-74
2022/04/10 01:02:23;;;;;;;;;;;;;;;;;;4406889;32;20167;-75
2022/04/10 01:04:48;;;;;;;8.35;2.72;;;;;;;;;;4393020;32;19942;-75
2022/04/10 01:07:13;;;;;;;;;;;;;;;;;;4386583;32;20360;-75
2022/04/10 01:09:39;;;;;;;13.38;3.20;;;;;;;;;;4378713;32;19938;-75
2022/04/10 01:12:04;;;;;;;;;;;;;;;;;;4378657;32;20027;-75
2022/04/10 01:14:29;;;;;;;12.40;2.60;;;;;;;;;;4391200;32;19972;-75
2022/04/10 01:16:54;;;;;;;;;;;;;;;;;;4377895;32;20444;-75
2022/04/10 01:19:20;;;;;;;8.95;2.75;;;;;;;;;;4377859;32;19949;-74
2022/04/10 01:21:46;;;;;;;;;;;;;;;;;;4392935;32;20023;-74
2022/04/10 01:24:11;;;;;;;11.15;3.35;;;;;;;;;;4391437;32;19934;-74
2022/04/10 01:26:37;;;;;;;;;;;;;;;;;;4377866;32;20049;-75
2022/04/10 01:29:02;;;;;;;11.15;2.95;;;;;;;;;;4392381;32;19941;-74
2022/04/10 01:31:27;;;;;;;;;;;;;;;;;;4406383;32;20026;-74
2022/04/10 01:33:54;;;;;;;13.68;2.87;;;;;;;;;;4385801;32;19937;-74
2022/04/10 01:36:21;;;;;;;16.08;3.40;;;;;;;;;;4392832;32;20423;-74
2022/04/10 01:38:46;;;;;;;15.85;2.70;;;;;;;;;;4390762;32;20055;-74
2022/04/10 01:41:11;;;;;;;;;;;;;;;;;;4378188;32;20494;-74
2022/04/10 01:43:43;;;;;;;12.60;3.22;;;;;;;;;;4390769;32;20319;-74
2022/04/10 01:46:08;;;;;;;14.15;3.60;;;;;;;;;;4396088;32;20060;-74
2022/04/10 01:48:33;;;;;;;;;;;;;;;;;;4393563;32;20019;-74
2022/04/10 01:50:58;;;;;;;11.73;3.17;;;;;;;;;;4406238;32;20322;-74
2022/04/10 01:53:23;;;;;;;;;;;;;;;;;;4392190;32;20061;-75
2022/04/10 01:55:48;;;;;;;9.98;2.47;;;;;;;;;;4405869;32;20275;-74
2022/04/10 01:58:13;;;;;;;;;;;;;;;;;;4406201;32;20018;-74
2022/04/10 02:00:39;;;;;;;8.15;2.33;;;;;;;;;;4391954;32;19937;-74
2022/04/10 02:03:04;;;;;;;;;;;;;;;;;;4407011;32;20193;-73
2022/04/10 02:05:29;;;;;;;5.95;3.33;;;;;;;;;;4407173;32;19942;-74
2022/04/10 02:07:54;;;;;;;;;;;;;;;;;;4406814;32;20149;-74
2022/04/10 02:10:19;;;;;;;13.06;3.30;;;;;;;;;;4392288;32;20270;-75
2022/04/10 02:12:44;;;;;;;;;;;;;;;;;;4405880;32;20480;-75
2022/04/10 02:15:09;;;;;;;12.15;2.75;;;;;;;;;;4391749;32;19933;-74
2022/04/10 02:17:35;;;;;;;;;;;;;;;;;;4407108;32;20490;-75
2022/04/10 02:20:00;;;;;;;6.57;2.28;;;;;;;;;;4392782;32;19948;-74
2022/04/10 02:22:25;;;;;;;;;;;;;;;;;;4393198;32;20049;-74
2022/04/10 02:24:50;;;;;;;13.57;2.85;;;;;;;;;;4391598;32;19937;-75
2022/04/10 02:27:15;;;;;;;;;;;;;;;;;;4405674;32;20019;-74
2022/04/10 02:29:40;;;;;;;11.88;2.87;;;;;;;;;;4406442;32;19933;-74
2022/04/10 02:32:05;;;;;;;;;;;;;;;;;;4407323;32;20517;-75
2022/04/10 02:34:30;;;;;;;12.10;2.60;;;;;;;;;;4405733;32;19937;-74
2022/04/10 02:36:56;;;;;;;;;;;;;;;;;;4392064;32;20106;-75
2022/04/10 02:39:21;;;;;;;11.82;2.22;;;;;;;;;;4389069;32;19969;-74
2022/04/10 02:41:46;;;;;;;;;;;;;;;;;;4389367;32;20053;-75
2022/04/10 02:44:11;;;;;;;12.57;3.15;;;;;;;;;;4388624;32;20322;-75
2022/04/10 02:46:36;;;;;;;;;;;;;;;;;;4390570;32;20072;-75
2022/04/10 02:49:01;;;;;;;8.82;2.60;;;;;;;;;;4388547;32;19954;-75
2022/04/10 02:51:27;;;;;;;;;;;;;;;;;;4389585;32;20214;-75
2022/04/10 02:53:52;;;;;;;13.35;2.97;;;;;;;;;;4390211;32;19969;-75
2022/04/10 02:56:17;;;;;;;;;;;;;;;;;;4389110;32;20185;-74
2022/04/10 02:58:42;;;;;;;8.60;3.02;;;;;;;;;;4390355;32;19953;-74
2022/04/10 03:01:07;;;;;;;;;;;;;;;;;;4388956;32;20031;-75
2022/04/10 03:03:32;;;;;;;7.07;2.30;;;;;;;;;;4390279;32;20311;-75
2022/04/10 03:05:57;;;;;;;;;;;;;;;;;;4391310;32;20026;-74
2022/04/10 03:08:23;;;;;;;14.07;2.72;;;;;;;;;;4390212;32;19941;-75
2022/04/10 03:10:48;;;;;;;;;;;;;;;;;;4389881;32;20076;-75
2022/04/10 03:13:14;;;;;;;9.82;2.62;;;;;;;;;;4388526;32;19933;-75
2022/04/10 03:15:39;;;;;;;12.27;2.67;;;;;;;;;;4388562;32;20433;-75
2022/04/10 03:18:04;;;;;;;;;;;;;;;;;;4390000;32;20045;-75
2022/04/10 03:20:30;;;;;;;9.93;2.90;;;;;;;;;;4390649;32;19934;-75
2022/04/10 03:22:55;;;;;;;;;;;;;;;;;;4389608;32;20168;-75
2022/04/10 03:25:20;;;;;;;10.38;2.78;;;;;;;;;;4390491;32;19941;-75
2022/04/10 03:27:45;;;;;;;;;;;;;;;;;;4393421;32;20068;-76
2022/04/10 03:30:11;;;;;;;11.63;3.20;;;;;;;;;;4395005;32;19942;-75
2022/04/10 03:32:37;;;;;;;18.17;3.10;;;;;;;;;;4392728;32;20194;-74
2022/04/10 03:35:02;;;;;;;;;;;;;;;;;;4392782;32;20053;-74
2022/04/10 03:37:27;;;;;;;11.20;2.72;;;;;;;;;;4393286;32;19934;-74
2022/04/10 03:39:52;;;;;;;;;;;;;;;;;;4392294;32;20121;-73
2022/04/10 03:42:17;;;;;;;8.93;2.87;;;;;;;;;;4393253;32;19941;-75
2022/04/10 03:44:42;;;;;;;;;;;;;;;;;;4391473;32;20031;-75
2022/04/10 03:47:08;;;;;;;8.65;2.58;;;;;;;;;;4392809;32;19975;-75
2022/04/10 03:49:33;;;;;;;;;;;;;;;;;;4393273;32;20094;-75
2022/04/10 03:51:58;;;;;;;14.80;3.22;;;;;;;;;;4393755;32;19937;-75
2022/04/10 03:54:23;;;;;;;;;;;;;;;;;;4393251;32;20412;-75
2022/04/10 03:56:48;;;;;;;9.68;2.62;;;;;;;;;;4391870;32;19938;-74
2022/04/10 03:59:13;;;;;;;;;;;;;;;;;;4393375;32;20061;-75
2022/04/10 04:01:38;;;;;;;5.85;2.28;;;;;;;;;;4393677;32;19942;-75
2022/04/10 04:04:04;;;;;;;;;;;;;;;;;;4393464;32;20031;-73
2022/04/10 04:06:29;;;;;;;12.73;3.25;;;;;;;;;;4392640;32;19938;-74
2022/04/10 04:08:54;;;;;;;;;;;;;;;;;;4393306;32;20057;-74
2022/04/10 04:11:19;;;;;;;13.77;2.65;;;;;;;;;;4391386;32;19938;-74
2022/04/10 04:13:44;;;;;;;;;;;;;;;;;;4393229;32;20026;-75
2022/04/10 04:16:10;;;;;;;7.45;2.55;;;;;;;;;;4392256;32;19952;-75
2022/04/10 04:18:35;;;;;;;;;;;;;;;;;;4393698;32;20476;-75
2022/04/10 04:21:00;;;;;;;13.10;3.04;;;;;;;;;;4392575;32;19948;-75
2022/04/10 04:23:25;;;;;;;;;;;;;;;;;;4392609;32;20038;-75
2022/04/10 04:25:50;;;;;;;8.13;3.25;;;;;;;;;;4392598;32;19964;-73
2022/04/10 04:28:16;;;;;;;;;;;;;;;;;;4394365;32;20023;-75
2022/04/10 04:30:41;;;;;;;9.75;3.75;;;;;;;;;;4393525;32;19981;-75
2022/04/10 04:33:06;;;;;;;12.02;5.12;;;;;;;;;;4392796;32;20031;-75
2022/04/10 04:35:31;;;;;;;;;;;;;;;;;;4393343;32;20241;-75
2022/04/10 04:37:57;;;;;;;10.93;3.08;;;;;;;;;;4393271;32;19967;-75
2022/04/10 04:40:23;;;;;;;11.90;3.62;;;;;;;;;;4390524;32;20463;-75
2022/04/10 04:42:48;;;;;;;;;;;;;;;;;;4391125;32;20019;-74
2022/04/10 04:45:13;;;;;;;9.35;3.47;;;;;;;;;;4392016;32;19952;-74
2022/04/10 04:47:38;;;;;;;;;;;;;;;;;;4393254;32;20372;-74
2022/04/10 04:50:03;;;;;;;15.30;4.12;;;;;;;;;;4393260;32;19938;-74
2022/04/10 04:52:28;;;;;;;;;;;;;;;;;;4390925;32;20022;-75
2022/04/10 04:54:54;;;;;;;7.12;3.30;;;;;;;;;;4391233;32;19960;-73
2022/04/10 04:57:19;;;;;;;;;;;;;;;;;;4394143;32;20536;-74
2022/04/10 04:59:44;;;;;;;6.70;3.30;;;;;;;;;;4391164;32;19953;-75
2022/04/10 05:02:09;;;;;;;;;;;;;;;;;;4390605;32;20030;-74
2022/04/10 05:04:34;;;;;;;9.98;3.05;;;;;;;;;;4392275;32;19976;-74
2022/04/10 05:06:59;;;;;;;;;;;;;;;;;;4392956;32;20026;-75
2022/04/10 05:09:24;;;;;;;6.43;3.30;;;;;;;;;;4390049;32;19953;-74
2022/04/10 05:11:49;;;;;;;;;;;;;;;;;;4393313;32;20408;-74
2022/04/10 05:14:15;;;;;;;11.93;3.53;;;;;;;;;;4391103;32;19930;-75
2022/04/10 05:16:40;;;;;;;;;;;;;;;;;;4392909;32;20027;-75
2022/04/10 05:19:05;;;;;;;9.32;3.65;;;;;;;;;;4391731;32;19953;-74
2022/04/10 05:21:30;;;;;;;;;;;;;;;;;;4393536;32;20528;-74
2022/04/10 05:23:55;;;;;;;15.23;4.35;;;;;;;;;;4391942;32;19957;-74
2022/04/10 05:26:20;;;;;;;;;;;;;;;;;;4392774;32;20034;-74
2022/04/10 05:28:45;;;;;;;11.93;4.05;;;;;;;;;;4391393;32;20319;-74
2022/04/10 05:31:10;;;;;;;;;;;;;;;;;;4391905;32;20023;-75
2022/04/10 05:33:36;;;;;;;9.23;3.20;;;;;;;;;;4391322;32;19949;-76
2022/04/10 05:36:01;;;;;;;;;;;;;;;;;;4391927;32;20172;-75
2022/04/10 05:38:26;;;;;;;13.15;3.35;;;;;;;;;;4393323;32;20283;-76
2022/04/10 05:40:54;;;;;;;;;;;;;;;;;;4392873;32;20054;-75
2022/04/10 05:43:23;;;;;;;12.27;3.53;;;;;;;;;;4406242;32;19941;-74
2022/04/10 05:45:48;;;;;;;7.03;3.03;;;;;;;;;;4406178;32;20022;-75
2022/04/10 05:48:13;;;;;;;;;;;;;;;;;;4406067;32;20064;-74
2022/04/10 05:50:39;;;;;;;10.43;3.22;;;;;;;;;;4406422;32;19930;-75
2022/04/10 05:53:04;;;;;;;;;;;;;;;;;;4406594;32;20071;-75
2022/04/10 05:55:29;;;;;;;7.05;2.78;;;;;;;;;;4405572;32;19948;-73
2022/04/10 05:57:54;;;;;;;;;;;;;;;;;;4393771;32;20189;-75
2022/04/10 06:00:21;;;;;;;16.17;2.95;;;;;;;;;;4393754;32;19989;-74
2022/04/10 06:02:46;;;;;;;9.27;2.75;;;;;;;;;;4391780;32;20017;-75
2022/04/10 06:05:11;;;;;;;;;;;;;;;;;;4392609;32;20364;-76
2022/04/10 06:07:36;;;;;;;8.02;2.70;;;;;;;;;;4391804;32;19938;-75
2022/04/10 06:10:02;;;;;;;;;;;;;;;;;;4392006;32;20103;-75
2022/04/10 06:12:28;;;;;;;9.15;2.87;;;;;;;;;;4392033;32;20282;-75
2022/04/10 06:14:54;;;;;;;15.23;3.22;;;;;;;;;;4393457;32;20390;-75
2022/04/10 06:17:19;;;;;;;;;;;;;;;;;;4406335;32;20018;-76
2022/04/10 06:19:45;;;;;;;8.88;2.87;;;;;;;;;;4406221;32;19944;-75
2022/04/10 06:22:10;;;;;;;;;;;;;;;;;;4406338;32;20050;-75
2022/04/10 06:24:35;;;;;;;7.82;2.92;;;;;;;;;;4406483;32;19952;-74
2022/04/10 06:27:01;;;;;;;;;;;;;;;;;;4406165;32;20124;-75
2022/04/10 06:29:26;;;;;;;15.88;3.25;;;;;;;;;;4391441;32;19944;-75
2022/04/10 06:31:51;;;;;;;;;;;;;;;;;;4405745;32;20169;-75
2022/04/10 06:34:17;;;;;;;11.93;3.30;;;;;;;;;;4407238;32;19933;-76
2022/04/10 06:36:42;;;;;;;;;;;;;;;;;;4406362;32;20057;-74
2022/04/10 06:39:07;;;;;;;8.00;2.75;;;;;;;;;;4405364;32;19972;-76
2022/04/10 06:41:32;;;;;;;;;;;;;;;;;;4391579;32;20455;-75
2022/04/10 06:43:57;;;;;;;5.72;2.83;;;;;;;;;;4406279;32;19938;-74
2022/04/10 06:46:23;;;;;;;;;;;;;;;;;;4390940;32;20146;-75
2022/04/10 06:48:49;;;;;;;12.65;3.42;;;;;;;;;;4404641;32;20007;-75
2022/04/10 06:51:14;;;;;;;;;;;;;;;;;;4405799;32;20030;-76
2022/04/10 06:53:39;;;;;;;13.98;3.42;;;;;;;;;;4391680;32;19948;-76
2022/04/10 06:56:04;;;;;;;;;;;;;;;;;;4391836;32;20465;-76
2022/04/10 06:58:29;;;;;;;8.82;2.10;;;;;;;;;;4391871;32;19937;-76
2022/04/10 07:00:54;;;;;;;;;;;;;;;;;;4405836;32;20045;-75
2022/04/10 07:03:19;;;;;;;8.60;2.65;;;;;;;;;;4392871;32;20090;-75
2022/04/10 07:05:45;;;;;;;9.87;2.90;;;;;;;;;;4405102;32;20159;-76
2022/04/10 07:08:10;;;;;;;;;;;;;;;;;;4391347;32;20443;-74
2022/04/10 07:10:38;;;;;;;12.02;3.25;;;;;;;;;;4405088;32;20323;-75
2022/04/10 07:13:03;;;;;;;7.78;2.17;;;;;;;;;;4391694;32;20023;-74
2022/04/10 07:15:28;;;;;;;;;;;;;;;;;;4405337;32;20078;-76
2022/04/10 07:17:56;;;;;;;10.25;3.58;;;;;;;;;;4404495;32;19930;-77
2022/04/10 07:20:21;;;;;;;8.80;2.15;;;;;;;;;;4390869;32;20027;-76
2022/04/10 07:25:30;;;;;;;10.52;3.00;;;;;;;;;;4407804;32;19940;-76
2022/04/10 07:27:55;;;;;;;;;;;;;;;;;;4408134;32;20027;-75
2022/04/10 07:30:20;;;;;;;10.30;2.58;;;;;;;;;;4408780;32;19934;-74
2022/04/10 07:32:45;;;;;;;;;;;;;;;;;;4407962;32;20181;-76
2022/04/10 07:35:10;;;;;;;12.20;2.22;;;;;;;;;;4408611;32;19941;-76
2022/04/10 07:37:36;;;;;;;;;;;;;;;;;;4407833;32;20022;-74
2022/04/10 07:40:02;;;;;;;12.30;2.92;;;;;;;;;;4407542;32;19945;-76
2022/04/10 07:42:27;;;;;;;7.82;1.87;;;;;;;;;;4394417;32;20390;-75
2022/04/10 07:44:59;;;;;;;;;;;;;;;;;;4392426;32;20027;-75
2022/04/10 07:47:27;;;;;;;14.60;2.47;;;;;;;;;;4398338;32;19942;-76
2022/04/10 07:49:53;;;;;;;13.35;2.20;;;;;;;;;;4403483;32;20073;-76
2022/04/10 07:52:18;;;;;;;;;;;;;;;;;;4399710;32;20083;-75
2022/04/10 07:54:43;;;;;;;13.35;2.67;;;;;;;;;;4403007;32;20335;-76
2022/04/10 07:57:09;;;;;;;;;;;;;;;;;;4400221;32;20019;-75
2022/04/10 07:59:34;;;;;;;7.90;2.42;;;;;;;;;;4402268;32;19937;-74
2022/04/10 08:01:59;;;;;;;;;;;;;;;;;;4405360;32;20057;-75
2022/04/10 08:04:25;;;;;;;5.32;1.70;;;;;;;;;;4404038;32;19953;-75
2022/04/10 08:06:50;;;;;;;6.47;2.33;;;;;;;;;;4407999;32;20026;-74
2022/04/10 08:09:16;;;;;;;5.87;2.33;;;;;;;;;;4410873;32;20065;-75
2022/04/10 08:11:41;;;;;;;;;;;;;;;;;;4411789;32;20118;-75
2022/04/10 08:14:06;;;;;;;5.78;2.10;;;;;;;;;;4398357;32;19948;-75
2022/04/10 08:16:31;;;;;;;;;;;;;;;;;;4413643;32;20099;-76
2022/04/10 08:18:56;;;;;;;8.73;2.20;;;;;;;;;;4413854;32;20320;-77
2022/04/10 08:21:21;;;;;;;14.38;2.50;;;;;;;;;;4412990;32;20022;-76
2022/04/10 08:23:46;;;;;;;;;;;;;;;;;;4413334;32;20079;-75
2022/04/10 08:26:12;;;;;;;7.22;2.03;;;;;;;;;;4392950;32;19942;-77
2022/04/10 08:28:37;;;;;;;;;;;;;;;;;;4395541;32;20383;-76
2022/04/10 08:31:02;;;;;;;8.88;1.67;;;;;;;;;;4390471;32;19971;-76
2022/04/10 08:33:27;;;;;;;;;;;;;;;;;;4400526;32;20180;-75
2022/04/10 08:35:52;;;;;;;6.18;2.20;;;;;;;;;;4404571;32;20367;-75
2022/04/10 08:38:17;;;;;;;;;;;;;;;;;;4397259;32;20026;-76
2022/04/10 08:40:44;;;;;;;18.67;3.53;;;;;;;;;;4399009;32;19961;-76
2022/04/10 08:43:10;;;;;;;8.57;2.60;;;;;;;;;;4401227;32;20130;-73
2022/04/10 08:45:37;;;;;;;10.02;1.90;;;;;;;;;;4384366;32;20531;-76
2022/04/10 08:48:02;;;;;;;10.52;2.28;;;;;;;;;;4398085;32;20073;-75
2022/04/10 08:50:28;;;;;;;;;;;;;;;;;;4400800;32;20053;-75
2022/04/10 08:52:55;;;;;;;6.70;2.12;;;;;;;;;;4399871;32;19986;-75
2022/04/10 08:55:21;;;;;;;15.38;3.95;;;;;;;;;;4399468;32;20046;-75
2022/04/10 08:57:46;;;;;;;;;;;;;;;;;;4388075;32;20424;-75
2022/04/10 09:00:12;;;;;;;6.78;2.10;;;;;;;;;;4407635;32;19975;-75
2022/04/10 09:02:37;;;;;;;;;;;;;;;;;;4402529;32;20023;-75
2022/04/10 09:05:03;;;;;;;7.12;2.03;;;;;;;;;;4398340;32;19984;-74
2022/04/10 09:07:28;;;;;;;6.65;1.90;;;;;;;;;;4377574;32;20421;-75
2022/04/10 09:09:54;;;;;;;;;;;;;;;;;;4377909;32;20022;-74
2022/04/10 09:12:19;;;;;;;11.23;2.03;;;;;;;;;;4377684;32;20307;-74
2022/04/10 09:14:44;;;;;;;;;;;;;;;;;;4377443;32;20027;-74
2022/04/10 09:17:16;;;;;;;9.98;2.22;;;;;;;;;;4378015;32;19989;-74
2022/04/10 09:19:42;;;;;;;4.18;1.40;;;;;;;;;;4391353;32;20385;-74
2022/04/10 09:22:20;;;;;;;6.32;1.67;;;;;;;;;;4391241;32;20030;-75
2022/04/10 09:25:04;;;;;;;7.70;2.10;;;;;;;;;;4381817;32;20048;-73
2022/04/10 09:27:33;;;;;;;10.32;2.97;;;;;;;;;;4407608;32;20026;-74
2022/04/10 09:29:58;;;;;;;4.72;1.60;;;;;;;;;;4392119;32;20023;-74
2022/04/10 09:32:23;;;;;;;;;;;;;;;;;;4393561;32;20060;-73
2022/04/10 09:34:56;;;;;;;3.10;1.30;;;;;;;;;;4379746;32;19953;-74
2022/04/10 09:37:21;;;;;;;6.05;1.85;;;;;;;;;;4382658;32;20048;-73
2022/04/10 09:39:46;;;;;;;;;;;;;;;;;;4401671;32;20038;-73
2022/04/10 09:42:12;;;;;;;5.80;1.80;;;;;;;;;;4394056;32;19949;-74
2022/04/10 09:44:37;;;;;;;;;;;;;;;;;;4390622;32;20376;-74
2022/04/10 09:47:09;;;;;;;4.82;1.98;;;;;;;;;;4383458;32;19972;-74
2022/04/10 09:49:38;;;;;;;9.27;1.80;;;;;;;;;;4406117;32;20113;-75
2022/04/10 09:52:05;;;;;;;2.80;1.70;;;;;;;;;;4405841;32;20042;-74
2022/04/10 09:54:41;;;;;;;5.82;1.80;;;;;;;;;;4406660;32;20522;-74
2022/04/10 09:57:11;;;;;;;5.80;1.65;;;;;;;;;;4405322;32;20083;-73
2022/04/10 09:59:38;;;;;;;8.25;1.92;;;;;;;;;;4391707;32;20328;-73
2022/04/10 10:02:07;;;;;;;4.62;1.48;;;;;;;;;;4406692;32;20407;-73
2022/04/10 10:04:37;;;;;;;5.07;1.75;;;;;;;;;;4392163;32;20053;-74
2022/04/10 10:07:03;;;;;;;5.95;1.75;;;;;;;;;;4391312;32;20019;-73
2022/04/10 10:09:31;;;;;;;3.03;1.20;;;;;;;;;;4391643;32;20027;-75
2022/04/10 10:11:56;;;;;;;7.93;1.77;;;;;;;;;;4389915;32;20042;-73
2022/04/10 10:14:21;;;;;;;;;;;;;;;;;;4377672;32;20053;-73
2022/04/10 10:16:47;;;;;;;6.65;1.50;;;;;;;;;;4377167;32;19971;-74
2022/04/10 10:19:13;;;;;;;;;;;;;;;;;;4392134;32;20158;-72
2022/04/10 10:21:38;;;;;;;6.07;1.50;;;;;;;;;;4377934;32;19930;-74
2022/04/10 10:24:03;;;;;;;;;;;;;;;;;;4389765;32;20393;-73
2022/04/10 10:26:40;;;;;;;9.50;1.95;;;;;;;;;;4390602;32;19946;-74
2022/04/10 10:29:09;;;;;;;6.30;1.58;;;;;;;;;;4376321;32;20036;-73
2022/04/10 10:31:34;;;;;;;9.05;1.62;;;;;;;;;;4390899;32;20019;-73
2022/04/10 10:33:59;;;;;;;;;;;;;;;;;;4391048;32;20065;-73
2022/04/10 10:36:28;;;;;;;3.12;1.50;;;;;;;;;;4391303;32;19968;-73
2022/04/10 10:38:55;;;;;;;5.00;1.45;;;;;;;;;;4376321;32;20030;-74
2022/04/10 10:41:20;;;;;;;6.55;1.50;;;;;;;;;;4389917;32;20408;-73
2022/04/10 10:43:45;;;;;;;;;;;;;;;;;;4376568;32;20049;-72
2022/04/10 10:46:20;;;;;;;4.00;1.55;;;;;;;;;;4377962;32;19989;-74
2022/04/10 10:48:46;;;;;;;4.10;1.70;;;;;;;;;;4395648;32;20057;-73
2022/04/10 10:51:11;;;;;;;;;;;;;;;;;;4404725;32;20022;-73
2022/04/10 10:53:52;;;;;;;4.62;1.87;;;;;;;;;;4404507;32;20034;-73
2022/04/10 10:56:17;;;;;;;3.20;1.50;;;;;;;;;;4375552;32;20479;-74
2022/04/10 10:58:42;;;;;;;;;;;;;;;;;;4396101;32;20062;-74
2022/04/10 11:01:08;;;;;;;3.10;1.60;;;;;;;;;;4395926;32;20294;-73
2022/04/10 11:03:33;;;;;;;;;;;;;;;;;;4397895;32;20057;-74
2022/04/10 11:06:05;;;;;;;2.97;1.35;;;;;;;;;;4386320;32;19990;-74
2022/04/10 11:08:37;;;;;;;2.75;1.48;;;;;;;;;;4404051;32;20038;-74
2022/04/10 11:11:04;;;;;;;5.10;1.60;;;;;;;;;;4394008;32;20058;-75
2022/04/10 11:13:40;;;;;;;3.58;1.55;;;;;;;;;;4397918;32;20406;-75
2022/04/10 11:16:08;;;;;;;6.07;1.85;;;;;;;;;;4390163;32;20420;-74
2022/04/10 11:18:37;;;;;;;5.55;1.62;;;;;;;;;;4390780;32;20119;-73
2022/04/10 11:21:08;;;;;;;5.65;1.73;;;;;;;;;;4389296;32;20060;-74
2022/04/10 11:23:39;;;;;;;10.55;2.40;;;;;;;;;;4386629;32;20108;-74
2022/04/10 11:26:08;;;;;;;4.97;1.67;;;;;;;;;;4387903;32;20046;-73
2022/04/10 11:28:54;;;;;;;5.55;1.70;;;;;;;;;;4390224;32;20039;-73
2022/04/10 11:31:36;;;;;;;7.37;2.03;;;;;;;;;;4391667;32;20060;-73
2022/04/10 11:34:19;;;;;;;4.93;2.35;;;;;;;;;;4396873;32;20056;-74
2022/04/10 11:36:44;;;;;;;5.05;1.80;;;;;;;;;;4397959;32;20124;-73
2022/04/10 11:39:10;;;;;;;6.30;1.90;;;;;;;;;;4388320;32;20436;-74
2022/04/10 11:41:36;;;;;;;6.60;1.65;;;;;;;;;;4384633;32;20034;-74
2022/04/10 11:44:02;;;;;;;7.47;2.33;;;;;;;;;;4381438;32;20030;-73
2022/04/10 11:46:29;;;;;;;3.75;1.37;;;;;;;;;;4379741;32;20047;-73
2022/04/10 11:48:55;;;;;;;6.30;1.70;;;;;;;;;;4382856;32;20080;-74
2022/04/10 11:51:20;;;;;;;3.35;1.62;;;;;;;;;;4376075;32;20035;-73
2022/04/10 11:53:45;;;;;;;;;;;;;;;;;;4383710;32;20038;-74
2022/04/10 11:56:13;;;;;;;4.20;1.62;;;;;;;;;;4386964;32;19949;-74
2022/04/10 11:58:38;;;;;;;5.57;1.73;;;;;;;;;;4382399;32;20126;-74
2022/04/10 12:01:04;;;;;;;5.15;1.75;;;;;;;;;;4373555;32;20053;-73
2022/04/10 12:03:29;;;;;;;;;;;;;;;;;;4375859;32;20155;-75
2022/04/10 12:05:54;;;;;;;4.65;1.42;;;;;;;;;;4374088;32;19938;-75
2022/04/10 12:08:20;;;;;;;6.30;2.47;;;;;;;;;;4377316;32;20034;-74
2022/04/10 12:10:53;;;;;;;6.40;1.60;;;;;;;;;;4375884;32;20020;-74
2022/04/10 12:13:18;;;;;;;7.87;2.17;;;;;;;;;;4376042;32;20024;-74
2022/04/10 12:15:43;;;;;;;5.72;1.77;;;;;;;;;;4376904;32;20030;-75
2022/04/10 12:18:09;;;;;;;5.97;1.50;;;;;;;;;;4375525;32;20023;-75
2022/04/10 12:20:36;;;;;;;9.98;2.00;;;;;;;;;;4376894;32;20035;-73
2022/04/10 12:23:01;;;;;;;5.75;1.60;;;;;;;;;;4376617;32;20027;-75
2022/04/10 12:25:27;;;;;;;4.22;1.80;;;;;;;;;;4381433;32;20064;-75
2022/04/10 12:27:52;;;;;;;6.05;1.80;;;;;;;;;;4391499;32;20089;-75
2022/04/10 12:30:18;;;;;;;5.85;2.10;;;;;;;;;;4393385;32;20053;-75
2022/04/10 12:32:44;;;;;;;5.82;1.65;;;;;;;;;;4392921;32;20070;-74
2022/04/10 12:35:10;;;;;;;6.40;2.10;;;;;;;;;;4392870;32;20080;-75
2022/04/10 12:37:35;;;;;;;4.28;2.33;;;;;;;;;;4392207;32;20388;-75
2022/04/10 12:40:01;;;;;;;5.37;1.90;;;;;;;;;;4402374;32;20092;-75
2022/04/10 12:42:36;;;;;;;6.25;1.50;;;;;;;;;;4406972;32;20049;-74
2022/04/10 12:45:03;;;;;;;4.25;1.48;;;;;;;;;;4393571;32;20025;-75
2022/04/10 12:47:44;;;;;;;4.47;1.60;;;;;;;;;;4406427;32;20106;-75
2022/04/10 12:50:11;;;;;;;6.20;1.60;;;;;;;;;;4396252;32;20076;-75
2022/04/10 12:52:40;;;;;;;4.93;1.70;;;;;;;;;;4409241;32;20068;-75
2022/04/10 12:55:16;;;;;;;2.60;1.30;;;;;;;;;;4395774;32;20022;-76
2022/04/10 12:57:43;;;;;;;5.53;2.05;;;;;;;;;;4399544;32;20065;-74
2022/04/10 13:00:21;;;;;;;4.62;1.60;;;;;;;;;;4411281;32;20022;-74
2022/04/10 13:02:46;;;;;;;3.42;1.87;;;;;;;;;;4412468;32;20050;-75
2022/04/10 13:05:13;;;;;;;4.10;1.70;;;;;;;;;;4408975;32;20107;-75
2022/04/10 13:07:52;;;;;;;4.75;1.55;;;;;;;;;;4380622;32;20144;-74
2022/04/10 13:10:18;;;;;;;5.20;1.70;;;;;;;;;;4409133;32;20397;-75
2022/04/10 13:12:43;;;;;;;5.43;1.60;;;;;;;;;;4408799;32;20050;-75
2022/04/10 13:15:09;;;;;;;5.05;1.37;;;;;;;;;;4407101;32;20033;-75
2022/04/10 13:17:36;;;;;;;5.55;1.95;;;;;;;;;;4381876;32;20022;-75
2022/04/10 13:20:05;;;;;;;4.10;1.40;;;;;;;;;;4405854;32;20094;-75
2022/04/10 13:22:31;;;;;;;4.45;2.00;;;;;;;;;;4392891;32;20367;-75
2022/04/10 13:24:56;;;;;;;3.62;1.65;;;;;;;;;;4392888;32;20052;-76
2022/04/10 13:27:21;;;;;;;7.93;1.83;;;;;;;;;;4406447;32;20352;-75
2022/04/10 13:29:46;;;;;;;9.85;1.80;;;;;;;;;;4405427;32;20113;-75
2022/04/10 13:32:11;;;;;;;5.00;2.08;;;;;;;;;;4393614;32;20122;-74
2022/04/10 13:34:36;;;;;;;3.37;1.50;;;;;;;;;;4391650;32;20030;-75
2022/04/10 13:37:02;;;;;;;3.22;1.65;;;;;;;;;;4406942;32;20182;-74
2022/04/10 13:39:28;;;;;;;5.35;1.77;;;;;;;;;;4406553;32;20109;-74
2022/04/10 13:41:53;;;;;;;4.85;1.60;;;;;;;;;;4393170;32;20057;-75
2022/04/10 13:44:18;;;;;;;5.82;2.05;;;;;;;;;;4405837;32;20038;-75
2022/04/10 13:46:44;;;;;;;4.53;1.80;;;;;;;;;;4391991;32;20034;-76
2022/04/10 13:49:09;;;;;;;4.10;1.73;;;;;;;;;;4399696;32;20423;-73
2022/04/10 13:51:34;;;;;;;3.12;1.52;;;;;;;;;;4396517;32;20023;-75
2022/04/10 13:54:01;;;;;;;5.32;1.70;;;;;;;;;;4392355;32;20057;-74
2022/04/10 13:56:26;;;;;;;3.90;1.67;;;;;;;;;;4391499;32;20439;-73
2022/04/10 13:58:51;;;;;;;7.63;2.10;;;;;;;;;;4392024;32;20031;-74
2022/04/10 14:01:16;;;;;;;3.97;1.83;;;;;;;;;;4376743;32;20118;-74
2022/04/10 14:03:41;;;;;;;3.85;1.60;;;;;;;;;;4391573;32;20118;-74
2022/04/10 14:06:06;;;;;;;4.95;2.05;;;;;;;;;;4391707;32;20118;-75
2022/04/10 14:08:32;;;;;;;5.20;1.70;;;;;;;;;;4390752;32;20115;-75
2022/04/10 14:10:57;;;;;;;6.97;2.92;;;;;;;;;;4377725;32;20031;-75
2022/04/10 14:13:22;;;;;;;4.10;1.50;;;;;;;;;;4391456;32;20082;-75
2022/04/10 14:15:47;;;;;;;4.65;2.12;;;;;;;;;;4391230;32;20065;-75
2022/04/10 14:18:12;;;;;;;;;;;;;;;;;;4405826;32;20077;-74
2022/04/10 14:20:38;;;;;;;4.20;1.90;;;;;;;;;;4391252;32;19941;-75
2022/04/10 14:23:03;;;;;;;3.65;1.65;;;;;;;;;;4406526;32;20412;-74
2022/04/10 14:25:28;;;;;;;4.10;1.60;;;;;;;;;;4398583;32;20053;-75
2022/04/10 14:27:53;;;;;;;;;;;;;;;;;;4377978;32;20022;-75
2022/04/10 14:30:18;;;;;;;5.10;2.10;;;;;;;;;;4375961;32;20005;-75
2022/04/10 14:32:43;;;;;;;6.47;3.35;;;;;;;;;;4390884;32;20380;-74
2022/04/10 14:35:09;;;;;;;4.70;1.98;;;;;;;;;;4394295;32;20018;-75
2022/04/10 14:37:34;;;;;;;;;;;;;;;;;;4395569;32;20019;-75
2022/04/10 14:40:00;;;;;;;8.45;2.97;;;;;;;;;;4375839;32;20252;-75
2022/04/10 14:42:26;;;;;;;6.12;2.17;;;;;;;;;;4389788;32;20125;-74
2022/04/10 14:44:51;;;;;;;6.35;2.50;;;;;;;;;;4390565;32;20026;-74
2022/04/10 14:47:16;;;;;;;7.07;2.15;;;;;;;;;;4389832;32;20042;-74
2022/04/10 14:49:41;;;;;;;;;;;;;;;;;;4389812;32;20023;-75
2022/04/10 14:52:08;;;;;;;6.18;2.40;;;;;;;;;;4390785;32;19934;-75
2022/04/10 14:54:34;;;;;;;8.23;2.62;;;;;;;;;;4389753;32;20138;-74
2022/04/10 14:56:59;;;;;;;6.28;2.65;;;;;;;;;;4375621;32;20026;-73
2022/04/10 14:59:24;;;;;;;;;;;;;;;;;;4400591;32;20140;-74
2022/04/10 15:01:51;;;;;;;4.62;2.70;;;;;;;;;;4390679;32;19937;-74
2022/04/10 15:04:16;;;;;;;5.55;2.10;;;;;;;;;;4391894;32;20171;-75
2022/04/10 15:06:41;;;;;;;8.02;2.80;;;;;;;;;;4391183;32;20046;-74
2022/04/10 15:09:06;;;;;;;4.85;2.78;;;;;;;;;;4390580;32;20473;-75
2022/04/10 15:11:33;;;;;;;7.07;3.37;;;;;;;;;;4405500;32;20125;-75